Kezdőlap
METAR-TAF:

METAR-TAF

Repülőterek :

Puerto Princesa, Fülöp-szigetek

földrajzi szélesség: 09-44-32N, földrajzi hosszúság: 118-45-31E, magasság: 22 m

Jelenlegi meteorológiai megfigyelések

A jelentés 1 órával és 1 perccel ezelõtt készült, 21:00 UTC
Nyugati szél 6 kt
Hőmérséklet 26°C
Páratartalom 89%
Légköri nyomás 1008 hPa
Látótávolság 10 km, vagy több
Kevés felhő 1900 lábon
Szakadozott felhőzet 24000 lábon

METAR: RPVP 212100Z 27006KT 9999 FEW019 BKN240 26/24 Q1008 RMK A2977

Idő: 06:01 (22:01 UTC)

Előrejelzés

A jelentés 5 órával és 1 perccel ezelõtt készült, 17:00 UTC
Az előrejelzés 21-én 18 óra UTC és 22-én 18 óra UTC között érvényes
Dél-délnyugati szél 10 kt
Látótávolság 10 km, vagy több
Kevés felhő 1900 lábon
22-én 03 óra UTC és 22-én 09 óra UTC között ideiglenes
Kevés felhő 1700 lábon, Cumulonimbus.
Szakadozott felhőzet 8000 lábon
enyhe záporok,

TAF: RPVP 211700Z 2118/2218 21010KT 9999 FEW019 TEMPO 2203/2209 -SHRA FEW017CB BKN080

Meteorológiai megfigyelések és előrejelzések több, mint 4000 repülőtéren (METAR és TAF jelentéseket).

A térképen piros és sárga pontok jelzik az elérhető meteorológiai állomásokat.

Mozgassa az egeret a pont fölött, hogy megjelenjen az állomás neve.

Azután kattintson az időjárási megfigyelések és előrejelzések megtekintéséhez.

A térkép megváltoztatása: kattintson a fekete keresztel jelölt zöld gombra ráközelítéshez, a vonallal jelölt zöld gombra távolításhoz, vagy a zöld nyilakra a szomszédos térképek eléréséhez.


METAR-TAF: